Time;durP1;ratioP1;P1;durP2;ratioP2;P2;SDS_P1;SDS_P2;PMS_P1;PMS_P2;Temp;Humidity;BMP_temperature;BMP_pressure;BME280_temperature;BME280_humidity;BME280_pressure;Samples;Min_cycle;Max_cycle;Signal;HPM_P1;HPM_P2
2022/01/01 00:00:38;;;;;;;61.95;41.13;;;12.20;99.90;;;;;;5010377;28;20133;-70
2022/01/01 00:03:04;;;;;;;70.38;43.97;;;12.20;99.90;;;;;;5012487;28;20037;-72
2022/01/01 00:05:29;;;;;;;70.65;48.33;;;12.20;99.90;;;;;;5010828;28;20059;-71
2022/01/01 00:07:57;;;;;;;75.32;50.97;;;12.20;99.90;;;;;;5014543;28;20111;-71
2022/01/01 00:10:22;;;;;;;83.40;53.33;;;12.20;99.90;;;;;;5011759;28;20493;-71
2022/01/01 00:12:48;;;;;;;82.45;54.17;;;12.20;99.90;;;;;;5010065;28;20042;-71
2022/01/01 00:15:15;;;;;;;83.38;54.47;;;12.20;99.90;;;;;;5011303;28;20050;-71
2022/01/01 00:17:42;;;;;;;82.43;55.17;;;12.20;99.90;;;;;;5013802;28;20489;-71
2022/01/01 00:20:09;;;;;;;89.32;55.33;;;12.10;99.90;;;;;;5010376;28;20579;-71
2022/01/01 00:22:39;;;;;;;83.40;54.50;;;12.10;99.90;;;;;;5007778;28;20061;-71
2022/01/01 00:25:06;;;;;;;80.93;54.83;;;12.20;99.90;;;;;;5010936;28;20038;-71
2022/01/01 00:27:32;;;;;;;87.65;55.90;;;12.10;99.90;;;;;;5010407;28;20975;-71
2022/01/01 00:29:58;;;;;;;86.65;54.95;;;12.10;99.90;;;;;;5011153;28;20161;-72
2022/01/01 00:32:23;;;;;;;82.78;56.45;;;12.10;99.90;;;;;;5010705;28;20121;-71
2022/01/01 00:34:50;;;;;;;88.32;57.80;;;12.10;99.90;;;;;;5005845;28;20487;-71
2022/01/01 00:37:17;;;;;;;98.47;61.45;;;12.10;99.90;;;;;;5012255;28;20038;-72
2022/01/01 00:39:43;;;;;;;88.72;57.75;;;12.10;99.90;;;;;;5010629;28;20072;-71
2022/01/01 00:42:08;;;;;;;95.13;60.22;;;12.10;99.90;;;;;;5010096;28;20539;-71
2022/01/01 00:44:34;;;;;;;97.43;59.72;;;12.10;99.90;;;;;;5010617;28;20044;-71
2022/01/01 00:47:00;;;;;;;92.45;56.28;;;12.10;99.90;;;;;;5010791;28;20042;-71
2022/01/01 00:49:26;;;;;;;87.97;51.55;;;12.10;99.90;;;;;;5009466;28;20504;-71
2022/01/01 00:51:52;;;;;;;80.93;49.25;;;12.10;99.90;;;;;;5009728;28;20974;-71
2022/01/01 00:54:17;;;;;;;72.72;45.83;;;12.00;99.90;;;;;;5007945;28;20061;-71
2022/01/01 00:56:43;;;;;;;75.43;45.28;;;12.00;99.90;;;;;;5004924;28;20541;-71
2022/01/01 00:59:08;;;;;;;77.05;46.38;;;12.00;99.90;;;;;;5009753;28;20137;-71
2022/01/01 01:01:34;;;;;;;81.47;49.08;;;12.00;99.90;;;;;;5004644;28;20045;-71
2022/01/01 01:04:00;;;;;;;84.25;52.47;;;12.00;99.90;;;;;;5009334;28;20045;-71
2022/01/01 01:06:25;;;;;;;87.25;54.35;;;12.00;99.90;;;;;;5011258;28;20135;-71
2022/01/01 01:08:53;;;;;;;87.97;57.00;;;12.00;99.90;;;;;;5012048;28;20081;-71
2022/01/01 01:11:19;;;;;;;86.78;55.47;;;12.00;99.90;;;;;;5020999;28;20056;-72
2022/01/01 01:13:55;;;;;;;85.13;53.65;;;12.00;99.90;;;;;;5016339;28;20041;-71
2022/01/01 01:16:21;;;;;;;85.25;51.33;;;12.00;99.90;;;;;;5018430;28;20065;-70
2022/01/01 01:18:46;;;;;;;82.68;51.65;;;12.00;99.90;;;;;;5008241;28;20046;-70
2022/01/01 01:21:12;;;;;;;79.88;51.95;;;12.00;99.90;;;;;;5010903;28;20038;-70
2022/01/01 01:23:37;;;;;;;86.65;55.38;;;12.00;99.90;;;;;;5008082;28;20068;-70
2022/01/01 01:26:03;;;;;;;93.97;55.72;;;12.00;99.90;;;;;;5010716;28;20042;-71
2022/01/01 01:28:29;;;;;;;88.72;55.17;;;11.90;99.90;;;;;;5010163;28;20100;-70
2022/01/01 01:30:54;;;;;;;88.38;54.22;;;11.90;99.90;;;;;;5008585;28;20473;-70
2022/01/01 01:33:20;;;;;;;84.80;51.25;;;11.90;99.90;;;;;;5006781;28;20042;-71
2022/01/01 01:35:45;;;;;;;78.68;50.20;;;11.90;99.90;;;;;;5010564;28;20119;-71
2022/01/01 01:38:11;;;;;;;80.78;49.42;;;11.90;99.90;;;;;;5008771;28;20041;-71
2022/01/01 01:40:37;;;;;;;88.65;47.53;;;11.90;99.90;;;;;;5018791;28;20072;-71
2022/01/01 01:43:08;;;;;;;71.70;45.28;;;11.90;99.90;;;;;;5014394;28;20038;-70
2022/01/01 01:45:34;;;;;;;68.88;42.83;;;11.90;99.90;;;;;;5009056;28;20496;-70
2022/01/01 01:48:00;;;;;;;73.70;42.13;;;11.90;99.90;;;;;;5010184;28;20041;-70
2022/01/01 01:50:25;;;;;;;71.75;41.67;;;11.90;99.90;;;;;;5009323;28;20058;-70
2022/01/01 01:52:54;;;;;;;71.03;41.33;;;11.90;99.90;;;;;;5007664;28;20096;-71
2022/01/01 01:55:20;;;;;;;69.43;39.35;;;11.90;99.90;;;;;;5008753;28;20042;-71
2022/01/01 01:57:46;;;;;;;66.53;38.40;;;11.90;99.90;;;;;;5009998;28;20053;-70
2022/01/01 02:03:05;;;;;;;67.60;36.58;;;11.90;99.90;;;;;;4996629;28;20054;-71
2022/01/01 02:05:38;;;;;;;67.18;36.53;;;11.90;99.90;;;;;;5008569;28;20061;-70
2022/01/01 02:08:05;;;;;;;59.40;34.13;;;11.90;99.90;;;;;;5004345;28;20041;-71
2022/01/01 02:10:32;;;;;;;64.35;34.08;;;11.90;99.90;;;;;;4993454;28;20041;-71
2022/01/01 02:12:58;;;;;;;76.75;34.55;;;11.90;99.90;;;;;;5007323;28;20563;-70
2022/01/01 02:16:01;;;;;;;66.65;33.88;;;11.90;99.90;;;;;;5009662;28;20070;-70
2022/01/01 02:18:26;;;;;;;62.05;31.63;;;11.90;99.90;;;;;;5003879;28;20053;-70
2022/01/01 02:20:55;;;;;;;61.65;32.42;;;11.80;99.90;;;;;;5007701;28;20046;-71
2022/01/01 02:23:23;;;;;;;64.93;33.42;;;11.80;99.90;;;;;;5028029;28;20046;-71
2022/01/01 02:25:50;;;;;;;60.45;35.05;;;11.80;99.90;;;;;;5008980;28;20046;-70
2022/01/01 02:28:16;;;;;;;69.38;37.03;;;11.80;99.90;;;;;;5007643;28;20058;-70
2022/01/01 02:30:42;;;;;;;72.30;34.05;;;11.70;99.90;;;;;;5007216;28;20038;-70
2022/01/01 02:33:07;;;;;;;70.38;34.90;;;11.80;99.90;;;;;;5008456;28;20140;-70
2022/01/01 02:35:33;;;;;;;67.85;36.03;;;11.80;99.90;;;;;;5006259;28;20026;-71
2022/01/01 02:37:58;;;;;;;74.72;37.00;;;11.80;99.90;;;;;;5005451;28;20053;-71
2022/01/01 02:40:24;;;;;;;69.03;38.08;;;11.80;99.90;;;;;;5008862;28;20057;-71
2022/01/01 02:42:51;;;;;;;75.60;38.90;;;11.80;99.90;;;;;;5002942;28;20042;-71
2022/01/01 02:45:17;;;;;;;75.65;37.63;;;11.80;99.90;;;;;;5016225;28;20065;-70
2022/01/01 02:47:43;;;;;;;73.63;38.28;;;11.80;99.90;;;;;;5007691;28;20079;-71
2022/01/01 02:50:10;;;;;;;72.03;38.75;;;11.80;99.90;;;;;;5007822;28;20074;-71
2022/01/01 02:52:36;;;;;;;70.03;38.90;;;11.80;99.90;;;;;;5023721;28;20042;-71
2022/01/01 02:55:04;;;;;;;79.22;41.83;;;11.80;99.90;;;;;;5013285;28;20046;-71
2022/01/01 02:57:29;;;;;;;;;;;11.80;99.90;;;;;;5008557;28;20370;-70
2022/01/01 02:59:55;;;;;;;75.28;40.45;;;11.80;99.90;;;;;;5014189;28;20047;-71
2022/01/01 03:02:21;;;;;;;80.60;41.35;;;11.80;99.90;;;;;;5006729;28;20076;-71
2022/01/01 03:04:48;;;;;;;77.93;42.53;;;11.80;99.90;;;;;;5004274;28;20073;-71
2022/01/01 03:07:14;;;;;;;74.72;43.00;;;11.80;99.90;;;;;;5008667;28;20050;-70
2022/01/01 03:09:39;;;;;;;82.25;43.42;;;11.80;99.90;;;;;;5006534;28;20053;-71
2022/01/01 03:12:10;;;;;;;76.10;42.78;;;11.80;99.90;;;;;;5006850;28;20049;-70
2022/01/01 03:14:37;;;;;;;77.82;44.30;;;11.80;99.90;;;;;;5003801;28;20060;-71
2022/01/01 03:17:03;;;;;;;83.95;45.60;;;11.80;99.90;;;;;;5007434;28;20400;-71
2022/01/01 03:19:29;;;;;;;84.82;46.38;;;11.80;99.90;;;;;;5008377;28;20545;-71
2022/01/01 03:21:55;;;;;;;77.00;45.63;;;11.80;99.90;;;;;;5007977;28;20130;-71
2022/01/01 03:24:20;;;;;;;88.35;49.47;;;11.80;99.90;;;;;;5006545;28;20053;-70
2022/01/01 03:26:46;;;;;;;85.25;49.30;;;11.80;99.90;;;;;;5009333;28;20485;-71
2022/01/01 03:29:12;;;;;;;83.07;49.78;;;11.80;99.90;;;;;;5009214;28;20448;-70
2022/01/01 03:31:37;;;;;;;85.90;50.67;;;11.80;99.90;;;;;;5010348;28;20045;-71
2022/01/01 03:34:03;;;;;;;88.90;52.25;;;11.90;99.90;;;;;;5006394;28;20041;-71
2022/01/01 03:36:30;;;;;;;90.95;50.95;;;11.80;99.90;;;;;;5021197;28;20131;-70
2022/01/01 03:38:56;;;;;;;90.25;51.40;;;11.80;99.90;;;;;;5005561;28;20064;-70
2022/01/01 03:41:22;;;;;;;91.10;52.67;;;11.80;99.90;;;;;;5006215;28;20073;-70
2022/01/01 03:43:47;;;;;;;90.35;52.65;;;11.80;99.90;;;;;;5007107;28;20454;-71
2022/01/01 03:46:14;;;;;;;95.95;53.67;;;11.80;99.90;;;;;;5002403;28;20038;-71
2022/01/01 03:48:40;;;;;;;93.72;53.33;;;11.80;99.90;;;;;;5007180;28;20049;-71
2022/01/01 03:51:05;;;;;;;102.13;54.75;;;11.80;99.90;;;;;;5005638;28;20072;-71
2022/01/01 03:53:31;;;;;;;93.30;51.75;;;11.80;99.90;;;;;;5014635;28;20137;-70
2022/01/01 03:55:58;;;;;;;97.40;53.05;;;11.80;99.90;;;;;;5007247;28;20049;-70
2022/01/01 03:58:24;;;;;;;87.80;52.15;;;11.80;99.90;;;;;;5008343;28;20420;-71
2022/01/01 04:00:50;;;;;;;93.22;53.25;;;11.80;99.90;;;;;;5004047;28;20064;-70
2022/01/01 04:03:18;;;;;;;88.82;51.08;;;11.80;99.90;;;;;;5008926;28;20046;-71
2022/01/01 04:05:45;;;;;;;91.63;53.45;;;11.80;99.90;;;;;;5005954;28;20046;-71
2022/01/01 04:08:12;;;;;;;93.32;52.72;;;11.80;99.90;;;;;;5006956;28;20046;-71
2022/01/01 04:10:39;;;;;;;94.30;52.88;;;11.80;99.90;;;;;;5006446;28;20501;-70
2022/01/01 04:13:06;;;;;;;86.95;51.30;;;11.80;99.90;;;;;;5003274;28;20038;-71
2022/01/01 04:15:33;;;;;;;;;;;11.80;99.90;;;;;;5010064;28;20054;-70
2022/01/01 04:18:07;;;;;;;88.90;54.03;;;11.80;99.90;;;;;;5006085;28;19947;-70
2022/01/01 04:20:33;;;;;;;89.95;55.33;;;11.80;99.90;;;;;;5006574;28;20559;-71
2022/01/01 04:22:59;;;;;;;97.32;55.25;;;11.80;99.90;;;;;;5007582;28;20125;-71
2022/01/01 04:25:26;;;;;;;85.57;53.33;;;11.80;99.90;;;;;;5006400;28;20041;-71
2022/01/01 04:27:54;;;;;;;81.88;53.58;;;11.80;99.90;;;;;;5004166;28;20038;-71
2022/01/01 04:30:21;;;;;;;87.00;54.13;;;11.80;99.90;;;;;;5007964;28;20062;-70
2022/01/01 04:32:48;;;;;;;96.40;55.17;;;11.80;99.90;;;;;;5010965;28;20050;-71
2022/01/01 04:35:14;;;;;;;90.28;55.65;;;11.80;99.90;;;;;;5014730;28;20046;-71
2022/01/01 04:37:40;;;;;;;93.77;57.33;;;11.80;99.90;;;;;;5006717;28;20050;-71
2022/01/01 04:40:07;;;;;;;92.53;56.05;;;11.80;99.90;;;;;;5004946;28;20046;-70
2022/01/01 04:42:33;;;;;;;90.85;55.85;;;11.80;99.90;;;;;;5006239;28;20414;-71
2022/01/01 04:44:58;;;;;;;88.68;55.75;;;11.80;99.90;;;;;;5008607;28;20058;-71
2022/01/01 04:47:25;;;;;;;93.43;56.42;;;11.80;99.90;;;;;;5011184;28;20041;-71
2022/01/01 04:49:51;;;;;;;87.93;55.00;;;11.80;99.90;;;;;;5006229;28;20453;-71
2022/01/01 04:52:17;;;;;;;90.93;55.35;;;11.80;99.90;;;;;;5011673;28;20045;-70
2022/01/01 04:54:44;;;;;;;95.13;56.92;;;11.80;99.90;;;;;;5009602;28;20049;-71
2022/01/01 04:57:11;;;;;;;96.57;56.60;;;11.80;99.90;;;;;;5009140;28;20053;-71
2022/01/01 04:59:38;;;;;;;91.35;57.13;;;11.80;99.90;;;;;;5010775;28;20049;-71
2022/01/01 05:02:04;;;;;;;94.47;57.53;;;11.80;99.90;;;;;;5006669;28;20061;-70
2022/01/01 05:04:30;;;;;;;84.30;53.85;;;11.80;99.90;;;;;;5013355;28;20042;-71
2022/01/01 05:06:56;;;;;;;99.53;57.33;;;11.80;99.90;;;;;;5013109;28;20056;-71
2022/01/01 05:09:22;;;;;;;86.65;54.35;;;11.80;99.90;;;;;;5022803;28;20076;-70
2022/01/01 05:11:47;;;;;;;94.68;56.42;;;11.80;99.90;;;;;;5023763;28;20504;-70
2022/01/01 05:14:14;;;;;;;96.85;56.20;;;11.80;99.90;;;;;;5008859;28;20386;-70
2022/01/01 05:16:40;;;;;;;80.72;51.10;;;11.80;99.90;;;;;;5006330;28;20054;-70
2022/01/01 05:19:06;;;;;;;88.03;54.70;;;11.80;99.90;;;;;;5009404;28;20112;-71
2022/01/01 05:21:34;;;;;;;96.05;56.03;;;11.80;99.90;;;;;;5019242;28;20412;-71
2022/01/01 05:24:01;;;;;;;91.95;55.50;;;11.80;99.90;;;;;;5010840;28;20471;-70
2022/01/01 05:26:27;;;;;;;90.50;56.13;;;11.80;99.90;;;;;;5009546;28;20046;-70
2022/01/01 05:28:53;;;;;;;88.95;54.97;;;11.80;99.90;;;;;;5016063;28;20640;-71
2022/01/01 05:31:19;;;;;;;88.93;53.10;;;11.80;99.90;;;;;;5008325;28;20034;-71
2022/01/01 05:33:52;;;;;;;93.17;52.47;;;11.80;99.90;;;;;;5013955;28;20046;-71
2022/01/01 05:36:18;;;;;;;87.28;49.20;;;11.80;99.90;;;;;;5007938;28;20309;-70
2022/01/01 05:38:45;;;;;;;80.03;49.28;;;11.80;99.90;;;;;;5025547;28;20033;-71
2022/01/01 05:41:11;;;;;;;83.28;49.28;;;11.80;99.90;;;;;;5024104;28;20429;-70
2022/01/01 05:43:38;;;;;;;87.00;47.17;;;11.70;99.90;;;;;;5012473;28;20834;-69
2022/01/01 05:46:04;;;;;;;83.83;46.23;;;11.80;99.90;;;;;;5009038;28;20504;-72
2022/01/01 05:48:30;;;;;;;80.88;46.90;;;11.80;99.90;;;;;;5012521;28;20117;-71
2022/01/01 05:50:56;;;;;;;78.43;45.45;;;11.80;99.90;;;;;;5012971;28;20439;-71
2022/01/01 05:53:22;;;;;;;73.80;43.00;;;11.80;99.90;;;;;;5010485;28;20144;-71
2022/01/01 05:55:48;;;;;;;69.47;42.10;;;11.80;99.90;;;;;;5004540;28;20509;-71
2022/01/01 05:58:14;;;;;;;70.50;40.67;;;11.80;99.90;;;;;;5005281;28;20058;-71
2022/01/01 06:00:39;;;;;;;71.93;37.17;;;11.80;99.90;;;;;;5006770;28;20129;-71
2022/01/01 06:03:05;;;;;;;72.38;37.25;;;11.80;99.90;;;;;;5009159;28;20050;-71
2022/01/01 06:05:31;;;;;;;64.78;36.30;;;11.80;99.90;;;;;;5008837;28;20053;-70
2022/01/01 06:07:58;;;;;;;60.70;37.53;;;11.80;99.90;;;;;;5011796;28;20129;-71
2022/01/01 06:10:25;;;;;;;62.90;36.75;;;11.80;99.90;;;;;;5007983;28;20049;-70
2022/01/01 06:12:51;;;;;;;65.00;33.85;;;11.80;99.90;;;;;;5006599;28;20053;-69
2022/01/01 06:15:17;;;;;;;65.97;36.10;;;11.80;99.90;;;;;;5008394;28;20062;-71
2022/01/01 06:17:43;;;;;;;64.85;33.22;;;11.80;99.90;;;;;;5008436;28;20398;-69
2022/01/01 06:20:09;;;;;;;57.75;33.60;;;11.80;99.90;;;;;;5008817;28;20057;-71
2022/01/01 06:22:35;;;;;;;54.47;32.38;;;11.80;99.90;;;;;;5008032;28;20034;-71
2022/01/01 06:25:01;;;;;;;59.50;32.30;;;11.80;99.90;;;;;;5008732;28;20078;-71
2022/01/01 06:27:27;;;;;;;57.88;32.08;;;11.80;99.90;;;;;;5008180;28;20073;-70
2022/01/01 06:29:53;;;;;;;58.08;33.47;;;11.80;99.90;;;;;;5008442;28;20476;-71
2022/01/01 06:32:19;;;;;;;63.08;33.33;;;11.80;99.90;;;;;;5007851;28;20046;-71
2022/01/01 06:34:45;;;;;;;61.85;32.80;;;11.80;99.90;;;;;;5007606;28;20044;-72
2022/01/01 06:37:10;;;;;;;67.13;32.17;;;11.80;99.90;;;;;;5009003;28;20042;-71
2022/01/01 06:39:36;;;;;;;58.67;31.35;;;11.70;99.90;;;;;;5007612;28;20044;-71
2022/01/01 06:42:02;;;;;;;64.40;33.10;;;11.70;99.90;;;;;;5007150;28;20513;-71
2022/01/01 06:44:27;;;;;;;63.10;33.58;;;11.80;99.90;;;;;;5008445;28;20057;-71
2022/01/01 06:46:53;;;;;;;67.88;32.33;;;11.70;99.90;;;;;;5007317;28;20038;-71
2022/01/01 06:49:19;;;;;;;63.38;31.90;;;11.70;99.90;;;;;;5008733;28;20448;-71
2022/01/01 06:51:45;;;;;;;62.63;31.25;;;11.70;99.90;;;;;;5007534;28;20065;-71
2022/01/01 06:54:11;;;;;;;58.13;31.33;;;11.70;99.90;;;;;;5007604;28;20107;-71
2022/01/01 06:56:36;;;;;;;57.03;29.92;;;11.70;99.90;;;;;;5007690;28;20149;-71
2022/01/01 06:59:02;;;;;;;55.20;30.40;;;11.80;99.90;;;;;;5008713;28;20078;-71
2022/01/01 07:01:28;;;;;;;54.17;30.10;;;11.70;99.90;;;;;;5006889;28;20050;-71
2022/01/01 07:03:53;;;;;;;58.47;29.88;;;11.80;99.90;;;;;;5007404;28;20064;-71
2022/01/01 07:06:19;;;;;;;55.25;29.58;;;11.70;99.90;;;;;;5007508;28;20125;-71
2022/01/01 07:08:44;;;;;;;50.25;29.90;;;11.70;99.90;;;;;;5006798;28;20054;-71
2022/01/01 07:11:10;;;;;;;54.80;29.95;;;11.70;99.90;;;;;;5007376;28;20042;-71
2022/01/01 07:13:35;;;;;;;67.05;30.75;;;11.80;99.90;;;;;;5007668;28;20038;-71
2022/01/01 07:16:01;;;;;;;62.47;31.23;;;11.70;99.90;;;;;;5006827;28;20068;-71
2022/01/01 07:18:27;;;;;;;62.83;30.75;;;11.80;99.90;;;;;;5007575;28;20413;-71
2022/01/01 07:20:52;;;;;;;59.60;31.17;;;11.80;99.90;;;;;;5007451;28;20066;-72
2022/01/01 07:23:18;;;;;;;61.45;31.33;;;11.80;99.90;;;;;;5006642;28;20050;-71
2022/01/01 07:25:44;;;;;;;57.58;30.65;;;11.70;99.90;;;;;;5005596;28;20041;-72
2022/01/01 07:28:13;;;;;;;60.53;29.45;;;11.80;99.90;;;;;;5007613;28;20539;-71
2022/01/01 07:30:39;;;;;;;57.72;28.88;;;11.80;99.90;;;;;;5005864;28;20092;-71
2022/01/01 07:33:04;;;;;;;53.92;29.13;;;11.70;99.90;;;;;;5007343;28;20049;-71
2022/01/01 07:35:30;;;;;;;54.33;29.05;;;11.80;99.90;;;;;;5007245;28;20041;-71
2022/01/01 07:37:56;;;;;;;62.47;30.15;;;11.70;99.90;;;;;;5005384;28;20042;-69
2022/01/01 07:40:21;;;;;;;53.60;29.13;;;11.80;99.90;;;;;;5007020;28;20045;-72
2022/01/01 07:42:48;;;;;;;51.78;29.00;;;11.70;99.90;;;;;;5011132;28;20052;-70
2022/01/01 07:45:14;;;;;;;57.45;28.23;;;11.70;99.90;;;;;;4992571;28;20103;-71
2022/01/01 07:47:40;;;;;;;58.78;29.60;;;11.80;99.90;;;;;;5007017;28;20045;-71
2022/01/01 07:50:07;;;;;;;62.30;29.90;;;11.70;99.90;;;;;;5007015;28;20042;-71
2022/01/01 07:52:32;;;;;;;57.38;30.20;;;11.70;99.90;;;;;;5006583;28;20062;-71
2022/01/01 07:54:59;;;;;;;57.85;29.60;;;11.70;99.90;;;;;;5005921;28;20053;-71
2022/01/01 07:57:24;;;;;;;57.15;30.83;;;11.70;99.90;;;;;;5004821;28;20064;-71
2022/01/01 07:59:50;;;;;;;58.45;31.30;;;11.70;99.90;;;;;;5005890;28;20658;-71
2022/01/01 08:02:16;;;;;;;60.25;32.63;;;11.70;99.90;;;;;;5006630;28;20042;-72
2022/01/01 08:04:41;;;;;;;62.38;32.45;;;11.70;99.90;;;;;;5006676;28;20088;-71
2022/01/01 08:07:07;;;;;;;57.55;32.80;;;11.70;99.90;;;;;;5009551;28;20149;-71
2022/01/01 08:09:32;;;;;;;63.45;32.72;;;11.80;99.90;;;;;;5006560;28;20050;-72
2022/01/01 08:11:58;;;;;;;60.53;34.00;;;11.80;99.90;;;;;;5005305;28;20141;-71
2022/01/01 08:14:24;;;;;;;66.00;35.17;;;11.80;99.90;;;;;;5006505;28;20457;-72
2022/01/01 08:16:59;;;;;;;64.63;35.33;;;11.80;99.90;;;;;;5006246;28;20505;-71
2022/01/01 08:19:26;;;;;;;65.28;35.47;;;11.80;99.90;;;;;;5009031;28;20054;-71
2022/01/01 08:21:52;;;;;;;69.55;36.20;;;11.80;99.90;;;;;;5009919;28;20521;-71
2022/01/01 08:24:18;;;;;;;75.13;38.10;;;11.80;99.90;;;;;;5010737;28;20088;-72
2022/01/01 08:26:44;;;;;;;69.70;36.75;;;11.80;99.90;;;;;;5010335;28;20112;-72
2022/01/01 08:29:10;;;;;;;71.10;36.85;;;11.90;99.90;;;;;;5010294;28;20088;-71
2022/01/01 08:31:36;;;;;;;66.32;35.05;;;11.80;99.90;;;;;;5010051;28;20084;-72
2022/01/01 08:34:01;;;;;;;65.30;36.30;;;11.90;99.90;;;;;;5009056;28;20042;-71
2022/01/01 08:36:27;;;;;;;64.40;36.60;;;11.90;99.90;;;;;;5006703;28;20056;-71
2022/01/01 08:38:52;;;;;;;67.00;37.42;;;11.90;99.90;;;;;;5010048;28;20049;-71
2022/01/01 08:41:18;;;;;;;69.22;38.35;;;11.90;99.90;;;;;;5009143;28;20078;-71
2022/01/01 08:43:43;;;;;;;69.70;38.65;;;11.90;99.90;;;;;;5011117;28;20497;-70
2022/01/01 08:46:10;;;;;;;66.95;39.63;;;11.90;99.90;;;;;;5010928;28;20050;-71
2022/01/01 08:48:36;;;;;;;79.40;39.67;;;11.90;99.90;;;;;;5010906;28;20057;-71
2022/01/01 08:51:16;;;;;;;63.30;37.50;;;12.00;99.90;;;;;;5009161;28;20054;-70
2022/01/01 08:53:42;;;;;;;69.05;37.78;;;12.00;99.90;;;;;;5007206;28;20049;-77
2022/01/01 08:56:08;;;;;;;66.30;37.38;;;12.00;99.90;;;;;;5009623;28;20129;-74
2022/01/01 08:58:34;;;;;;;61.67;37.22;;;12.00;99.90;;;;;;5009183;28;20046;-74
2022/01/01 09:01:00;;;;;;;60.95;36.00;;;12.00;99.90;;;;;;5009595;28;20069;-74
2022/01/01 09:03:26;;;;;;;61.23;35.87;;;12.00;99.90;;;;;;5010556;28;20552;-74
2022/01/01 09:05:52;;;;;;;60.90;36.30;;;12.10;99.90;;;;;;5011590;28;20041;-74
2022/01/01 09:08:18;;;;;;;63.67;34.10;;;12.10;99.90;;;;;;5030295;28;20136;-74
2022/01/01 09:10:43;;;;;;;62.47;33.97;;;12.10;99.90;;;;;;5015932;28;20065;-73
2022/01/01 09:13:09;;;;;;;59.33;32.45;;;12.10;99.90;;;;;;5009647;28;20080;-72
2022/01/01 09:15:34;;;;;;;59.15;31.90;;;12.10;99.90;;;;;;5008675;28;20053;-74
2022/01/01 09:18:00;;;;;;;53.92;30.92;;;12.10;99.90;;;;;;5000573;28;20433;-75
2022/01/01 09:20:25;;;;;;;53.05;29.75;;;12.20;99.90;;;;;;5011702;28;20045;-73
2022/01/01 09:22:51;;;;;;;47.40;27.77;;;12.20;99.90;;;;;;5011172;28;20746;-74
2022/01/01 09:25:17;;;;;;;48.70;28.08;;;12.20;99.90;;;;;;5010920;28;20049;-74
2022/01/01 09:27:42;;;;;;;48.50;27.48;;;12.20;99.90;;;;;;5009852;28;20084;-75
2022/01/01 09:30:08;;;;;;;48.30;26.75;;;12.20;99.90;;;;;;5026188;28;20053;-74
2022/01/01 09:32:35;;;;;;;44.13;25.83;;;12.20;99.90;;;;;;5019607;28;20511;-73
2022/01/01 09:35:01;;;;;;;47.75;25.60;;;12.20;99.90;;;;;;5008437;28;20050;-73
2022/01/01 09:37:29;;;;;;;45.25;24.80;;;12.20;99.90;;;;;;5007245;28;20054;-74
2022/01/01 09:39:56;;;;;;;;;;;12.30;99.90;;;;;;5007480;28;20516;-72
2022/01/01 09:42:23;;;;;;;43.40;23.88;;;12.30;99.90;;;;;;5009447;28;19925;-72
2022/01/01 09:44:51;;;;;;;42.22;24.00;;;12.30;99.90;;;;;;5008472;28;20061;-71
2022/01/01 09:47:17;;;;;;;38.42;24.17;;;12.30;99.90;;;;;;5009498;28;20049;-72
2022/01/01 09:49:42;;;;;;;39.08;21.98;;;12.40;99.90;;;;;;5006925;28;20046;-72
2022/01/01 09:52:09;;;;;;;44.28;22.13;;;12.40;99.90;;;;;;5008539;28;20755;-72
2022/01/01 09:54:35;;;;;;;39.72;22.55;;;12.50;99.90;;;;;;5008232;28;20053;-70
2022/01/01 09:57:02;;;;;;;40.20;20.95;;;12.50;99.90;;;;;;5008870;28;20065;-71
2022/01/01 09:59:27;;;;;;;40.22;21.10;;;12.50;99.90;;;;;;5009451;28;20552;-71
2022/01/01 10:01:53;;;;;;;37.35;20.02;;;12.50;99.90;;;;;;5007058;28;20042;-70
2022/01/01 10:04:19;;;;;;;37.17;19.45;;;12.50;99.90;;;;;;5006465;28;20509;-71
2022/01/01 10:07:00;;;;;;;33.30;19.10;;;12.60;99.90;;;;;;5012899;28;20172;-71
2022/01/01 10:09:34;;;;;;;35.55;17.63;;;12.60;99.90;;;;;;5027457;28;20042;-71
2022/01/01 10:12:00;;;;;;;28.45;18.02;;;12.60;99.90;;;;;;5000186;28;20050;-71
2022/01/01 10:14:40;;;;;;;32.67;17.10;;;12.60;99.90;;;;;;5009129;28;20355;-72
2022/01/01 10:17:17;;;;;;;28.75;16.13;;;12.70;99.90;;;;;;5012576;28;20049;-72
2022/01/01 10:19:44;;;;;;;28.77;16.40;;;12.70;99.90;;;;;;5008639;28;20080;-72
2022/01/01 10:22:14;;;;;;;25.02;14.80;;;12.80;99.90;;;;;;5009132;28;20067;-71
2022/01/01 10:27:45;;;;;;;23.87;12.60;;;12.80;99.90;;;;;;5008540;28;20046;-72
2022/01/01 10:30:19;;;;;;;21.92;11.88;;;12.80;99.90;;;;;;5007883;28;20040;-72
2022/01/01 10:33:09;;;;;;;25.63;12.15;;;12.80;99.90;;;;;;5005952;28;20084;-72
2022/01/01 10:35:53;;;;;;;26.70;12.15;;;12.80;99.90;;;;;;5007197;28;20053;-71
2022/01/01 10:38:27;;;;;;;21.88;11.95;;;12.80;99.90;;;;;;5008307;28;20060;-69
2022/01/01 10:40:54;;;;;;;22.15;11.95;;;12.80;99.90;;;;;;5007306;28;20062;-71
2022/01/01 10:43:20;;;;;;;22.95;11.25;;;12.80;99.90;;;;;;5017944;28;20137;-70
2022/01/01 10:45:48;;;;;;;22.45;10.68;;;12.90;99.90;;;;;;5007100;28;20053;-70
2022/01/01 10:50:51;;;;;;;20.75;10.82;;;12.80;99.90;;;;;;5001878;28;20198;-69
2022/01/01 10:53:24;;;;;;;23.23;10.52;;;12.90;99.90;;;;;;5021276;28;20100;-69
2022/01/01 10:55:55;;;;;;;23.52;10.70;;;12.90;99.90;;;;;;5019973;28;20079;-70
2022/01/01 10:58:29;;;;;;;21.00;10.13;;;12.90;99.90;;;;;;5007229;28;20547;-70
2022/01/01 11:01:06;;;;;;;18.75;9.70;;;12.80;99.90;;;;;;5007912;28;20574;-70
2022/01/01 11:03:37;;;;;;;23.08;10.05;;;12.80;99.90;;;;;;5012614;28;20068;-70
2022/01/01 11:06:12;;;;;;;22.42;9.70;;;12.80;99.90;;;;;;5009174;28;20042;-74
2022/01/01 11:08:40;;;;;;;24.35;9.25;;;12.80;99.90;;;;;;5022169;28;20045;-72
2022/01/01 11:11:05;;;;;;;20.80;10.23;;;12.90;99.90;;;;;;5011379;28;20052;-72
2022/01/01 11:13:32;;;;;;;19.25;9.77;;;12.90;99.90;;;;;;5010882;28;20049;-71
2022/01/01 11:15:59;;;;;;;20.95;9.23;;;12.90;99.90;;;;;;5009097;28;20224;-73
2022/01/01 11:18:25;;;;;;;17.83;8.95;;;13.00;99.90;;;;;;5009889;28;20060;-74
2022/01/01 11:20:53;;;;;;;20.70;10.38;;;13.00;99.90;;;;;;5008596;28;20137;-74
2022/01/01 11:23:20;;;;;;;21.37;10.67;;;13.00;99.90;;;;;;5009005;28;20103;-71
2022/01/01 11:25:46;;;;;;;;;;;13.10;99.90;;;;;;5007762;28;20042;-71
2022/01/01 11:28:16;;;;;;;20.45;10.05;;;13.00;99.90;;;;;;5006950;28;20348;-71
2022/01/01 11:30:59;;;;;;;17.00;9.40;;;13.00;99.90;;;;;;5006836;28;20046;-72
2022/01/01 11:33:42;;;;;;;23.95;10.05;;;13.00;99.90;;;;;;5005819;28;20053;-70
2022/01/01 11:36:18;;;;;;;19.23;9.77;;;13.10;99.90;;;;;;5004025;28;20049;-71
2022/01/01 11:38:44;;;;;;;20.38;11.60;;;13.00;99.90;;;;;;5005857;28;20056;-71
2022/01/01 11:41:14;;;;;;;16.90;9.60;;;13.00;99.90;;;;;;5008139;28;20062;-70
2022/01/01 11:43:46;;;;;;;18.98;9.35;;;13.00;99.90;;;;;;5005577;28;20053;-70
2022/01/01 11:46:29;;;;;;;17.17;8.30;;;13.00;99.90;;;;;;5006592;28;20053;-70
2022/01/01 11:48:56;;;;;;;19.17;9.32;;;13.00;99.90;;;;;;4991809;28;20143;-70
2022/01/01 11:51:38;;;;;;;20.50;10.00;;;13.00;99.90;;;;;;5005125;28;20046;-70
2022/01/01 11:54:20;;;;;;;16.42;8.70;;;12.90;99.90;;;;;;5005130;28;20054;-70
2022/01/01 11:56:46;;;;;;;18.77;9.27;;;13.00;99.90;;;;;;5001433;28;20050;-70
2022/01/01 11:59:36;;;;;;;17.95;8.90;;;13.00;99.90;;;;;;5006324;28;20052;-76
2022/01/01 12:02:25;;;;;;;16.10;7.88;;;13.00;99.90;;;;;;4995357;28;20761;-72
2022/01/01 12:04:55;;;;;;;20.42;9.15;;;13.00;99.90;;;;;;5016453;28;20046;-71
2022/01/01 12:07:20;;;;;;;16.73;8.73;;;13.00;99.90;;;;;;5022363;28;20658;-73
2022/01/01 12:10:09;;;;;;;16.70;8.57;;;13.00;99.90;;;;;;5012473;28;20052;-73
2022/01/01 12:13:03;;;;;;;16.33;8.00;;;13.00;99.90;;;;;;5006711;28;20094;-73
2022/01/01 12:15:50;;;;;;;15.63;8.88;;;13.00;99.90;;;;;;4997574;28;20062;-72
2022/01/01 12:18:17;;;;;;;;;;;13.00;99.90;;;;;;5006618;28;20069;-73
2022/01/01 12:20:56;;;;;;;19.80;8.73;;;13.00;99.90;;;;;;5006376;28;19929;-73
2022/01/01 12:23:24;;;;;;;17.20;9.05;;;13.00;99.90;;;;;;5015308;28;20054;-72
2022/01/01 12:25:52;;;;;;;18.83;9.07;;;13.00;99.90;;;;;;5005115;28;20046;-72
2022/01/01 12:28:31;;;;;;;18.13;9.80;;;13.00;99.90;;;;;;5007411;28;20425;-72
2022/01/01 12:31:14;;;;;;;19.08;9.18;;;13.00;99.90;;;;;;5004253;28;20042;-71
2022/01/01 12:33:52;;;;;;;18.77;9.43;;;13.10;99.90;;;;;;5004302;28;20057;-71
2022/01/01 12:36:21;;;;;;;15.63;8.57;;;13.10;99.90;;;;;;5005792;28;20500;-72
2022/01/01 12:38:50;;;;;;;18.13;8.45;;;13.10;99.90;;;;;;5006009;28;20061;-72
2022/01/01 12:41:22;;;;;;;14.27;8.52;;;13.10;99.90;;;;;;5005879;28;20698;-72